sensor_id;sensor_type;location;lat;lon;timestamp;pressure;altitude;pressure_sealevel;temperature;humidity
5550;BME280;2798;42.716;23.256;2023-12-22T00:01:02;93231.78;;;4.53;78.86
5550;BME280;2798;42.716;23.256;2023-12-22T00:03:27;93219.50;;;4.47;78.92
5550;BME280;2798;42.716;23.256;2023-12-22T00:05:52;93221.94;;;4.49;79.58
5550;BME280;2798;42.716;23.256;2023-12-22T00:08:18;93218.72;;;4.58;78.79
5550;BME280;2798;42.716;23.256;2023-12-22T00:10:45;93214.19;;;4.50;78.93
5550;BME280;2798;42.716;23.256;2023-12-22T00:13:11;93215.81;;;4.51;80.07
5550;BME280;2798;42.716;23.256;2023-12-22T00:15:36;93204.25;;;4.58;79.18
5550;BME280;2798;42.716;23.256;2023-12-22T00:18:01;93207.34;;;4.51;79.76
5550;BME280;2798;42.716;23.256;2023-12-22T00:20:27;93205.28;;;4.56;80.15
5550;BME280;2798;42.716;23.256;2023-12-22T00:22:53;93185.94;;;4.65;79.35
5550;BME280;2798;42.716;23.256;2023-12-22T00:25:18;93191.50;;;4.58;79.74
5550;BME280;2798;42.716;23.256;2023-12-22T00:27:43;93196.72;;;4.57;80.30
5550;BME280;2798;42.716;23.256;2023-12-22T00:30:09;93179.84;;;4.67;79.49
5550;BME280;2798;42.716;23.256;2023-12-22T00:32:34;93183.75;;;4.60;79.99
5550;BME280;2798;42.716;23.256;2023-12-22T00:35:00;93164.84;;;4.63;80.70
5550;BME280;2798;42.716;23.256;2023-12-22T00:37:25;93174.50;;;4.70;79.37
5550;BME280;2798;42.716;23.256;2023-12-22T00:39:50;93160.69;;;4.62;79.51
5550;BME280;2798;42.716;23.256;2023-12-22T00:42:16;93174.94;;;4.64;80.61
5550;BME280;2798;42.716;23.256;2023-12-22T00:44:41;93176.00;;;4.73;79.47
5550;BME280;2798;42.716;23.256;2023-12-22T00:47:06;93172.38;;;4.64;79.92
5550;BME280;2798;42.716;23.256;2023-12-22T00:49:32;93168.00;;;4.66;80.55
5550;BME280;2798;42.716;23.256;2023-12-22T00:51:57;93177.06;;;4.70;79.84
5550;BME280;2798;42.716;23.256;2023-12-22T00:54:22;93163.03;;;4.65;79.79
5550;BME280;2798;42.716;23.256;2023-12-22T00:56:48;93160.13;;;4.69;80.10
5550;BME280;2798;42.716;23.256;2023-12-22T00:59:13;93173.09;;;4.78;79.70
5550;BME280;2798;42.716;23.256;2023-12-22T01:01:38;93181.44;;;4.68;79.95
5550;BME280;2798;42.716;23.256;2023-12-22T01:04:05;93164.31;;;4.70;80.71
5550;BME280;2798;42.716;23.256;2023-12-22T01:06:30;93166.97;;;5.03;78.71
5550;BME280;2798;42.716;23.256;2023-12-22T01:08:55;93169.88;;;4.87;79.30
5550;BME280;2798;42.716;23.256;2023-12-22T01:11:21;93173.34;;;4.86;79.98
5550;BME280;2798;42.716;23.256;2023-12-22T01:13:46;93168.03;;;4.89;79.56
5550;BME280;2798;42.716;23.256;2023-12-22T01:16:11;93161.97;;;4.79;79.75
5550;BME280;2798;42.716;23.256;2023-12-22T01:18:37;93035.72;;;4.06;80.41
5550;BME280;2798;42.716;23.256;2023-12-22T01:21:02;93152.03;;;4.87;79.91
5550;BME280;2798;42.716;23.256;2023-12-22T01:23:28;93158.53;;;4.80;80.13
5550;BME280;2798;42.716;23.256;2023-12-22T01:25:53;93168.38;;;4.85;80.59
5550;BME280;2798;42.716;23.256;2023-12-22T01:28:18;93155.03;;;4.92;79.75
5550;BME280;2798;42.716;23.256;2023-12-22T01:30:44;93146.38;;;4.84;79.80
5550;BME280;2798;42.716;23.256;2023-12-22T01:33:09;93136.16;;;4.84;80.52
5550;BME280;2798;42.716;23.256;2023-12-22T01:35:34;93132.22;;;4.91;79.97
5550;BME280;2798;42.716;23.256;2023-12-22T01:38:00;93131.41;;;4.79;80.25
5550;BME280;2798;42.716;23.256;2023-12-22T01:40:25;93129.91;;;4.88;80.68
5550;BME280;2798;42.716;23.256;2023-12-22T01:42:52;93125.50;;;4.90;80.02
5550;BME280;2798;42.716;23.256;2023-12-22T01:45:18;93120.16;;;4.81;80.49
5550;BME280;2798;42.716;23.256;2023-12-22T01:47:44;93116.09;;;4.90;81.01
5550;BME280;2798;42.716;23.256;2023-12-22T01:50:10;93111.00;;;4.90;79.61
5550;BME280;2798;42.716;23.256;2023-12-22T01:52:37;93117.75;;;4.80;80.00
5550;BME280;2798;42.716;23.256;2023-12-22T01:55:04;93103.47;;;4.89;80.71
5550;BME280;2798;42.716;23.256;2023-12-22T01:57:30;93115.06;;;4.93;80.16
5550;BME280;2798;42.716;23.256;2023-12-22T01:59:55;93110.09;;;4.80;80.55
5550;BME280;2798;42.716;23.256;2023-12-22T02:02:21;93115.06;;;4.93;81.14
5550;BME280;2798;42.716;23.256;2023-12-22T02:04:47;93110.41;;;4.98;80.16
5550;BME280;2798;42.716;23.256;2023-12-22T02:07:13;93104.41;;;4.88;80.47
5550;BME280;2798;42.716;23.256;2023-12-22T02:09:38;93109.28;;;4.91;81.09
5550;BME280;2798;42.716;23.256;2023-12-22T02:12:04;93100.31;;;4.97;79.80
5550;BME280;2798;42.716;23.256;2023-12-22T02:14:29;93097.81;;;4.85;80.12
5550;BME280;2798;42.716;23.256;2023-12-22T02:16:56;93096.53;;;4.91;80.73
5550;BME280;2798;42.716;23.256;2023-12-22T02:21:59;93092.94;;;4.82;80.19
5550;BME280;2798;42.716;23.256;2023-12-22T02:24:25;93093.97;;;4.91;79.72
5550;BME280;2798;42.716;23.256;2023-12-22T02:26:51;93071.72;;;4.93;79.15
5550;BME280;2798;42.716;23.256;2023-12-22T02:29:17;93085.19;;;4.84;79.58
5550;BME280;2798;42.716;23.256;2023-12-22T02:31:43;93073.75;;;5.22;78.12
5550;BME280;2798;42.716;23.256;2023-12-22T02:34:13;93099.06;;;5.02;78.67
5550;BME280;2798;42.716;23.256;2023-12-22T02:36:40;93096.53;;;4.91;79.66
5550;BME280;2798;42.716;23.256;2023-12-22T02:39:07;93099.88;;;5.03;79.07
5550;BME280;2798;42.716;23.256;2023-12-22T02:41:34;93106.00;;;5.00;79.18
5550;BME280;2798;42.716;23.256;2023-12-22T02:44:00;93086.09;;;4.94;79.06
5550;BME280;2798;42.716;23.256;2023-12-22T02:46:25;93087.94;;;5.03;78.82
5550;BME280;2798;42.716;23.256;2023-12-22T02:48:51;93087.59;;;4.97;79.15
5550;BME280;2798;42.716;23.256;2023-12-22T02:51:16;93068.94;;;4.96;79.84
5550;BME280;2798;42.716;23.256;2023-12-22T02:53:41;93068.41;;;5.37;77.72
5550;BME280;2798;42.716;23.256;2023-12-22T02:56:07;93061.31;;;5.29;78.03
5550;BME280;2798;42.716;23.256;2023-12-22T02:58:32;93046.59;;;5.32;78.45
5550;BME280;2798;42.716;23.256;2023-12-22T03:00:57;93053.91;;;5.59;76.34
5550;BME280;2798;42.716;23.256;2023-12-22T03:03:23;93048.53;;;5.40;77.05
5550;BME280;2798;42.716;23.256;2023-12-22T03:05:48;93059.09;;;5.36;78.35
5550;BME280;2798;42.716;23.256;2023-12-22T03:08:13;93060.25;;;5.64;76.03
5550;BME280;2798;42.716;23.256;2023-12-22T03:10:39;93062.31;;;5.49;76.93
5550;BME280;2798;42.716;23.256;2023-12-22T03:13:04;93067.19;;;5.52;77.29
5550;BME280;2798;42.716;23.256;2023-12-22T03:15:29;92952.91;;;5.02;75.58
5550;BME280;2798;42.716;23.256;2023-12-22T03:17:55;93065.22;;;5.44;76.81
5550;BME280;2798;42.716;23.256;2023-12-22T03:20:20;93074.28;;;5.37;78.15
5550;BME280;2798;42.716;23.256;2023-12-22T03:22:46;93066.63;;;5.37;77.52
5550;BME280;2798;42.716;23.256;2023-12-22T03:25:11;93074.56;;;5.23;77.95
5550;BME280;2798;42.716;23.256;2023-12-22T03:27:36;93065.50;;;5.30;78.71
5550;BME280;2798;42.716;23.256;2023-12-22T03:30:02;93068.63;;;5.34;78.21
5550;BME280;2798;42.716;23.256;2023-12-22T03:32:28;93074.78;;;5.19;78.57
5550;BME280;2798;42.716;23.256;2023-12-22T03:34:54;93061.13;;;5.21;79.12
5550;BME280;2798;42.716;23.256;2023-12-22T03:37:19;93066.00;;;5.24;78.68
5550;BME280;2798;42.716;23.256;2023-12-22T03:39:44;93062.78;;;5.10;79.11
5550;BME280;2798;42.716;23.256;2023-12-22T03:42:10;93058.13;;;5.15;79.79
5550;BME280;2798;42.716;23.256;2023-12-22T03:44:35;93059.06;;;5.47;77.71
5550;BME280;2798;42.716;23.256;2023-12-22T03:47:00;93060.53;;;5.28;78.35
5550;BME280;2798;42.716;23.256;2023-12-22T03:49:26;93064.91;;;5.38;78.75
5550;BME280;2798;42.716;23.256;2023-12-22T03:51:51;93058.84;;;5.39;78.03
5550;BME280;2798;42.716;23.256;2023-12-22T03:54:16;93069.22;;;5.26;78.92
5550;BME280;2798;42.716;23.256;2023-12-22T03:56:42;93059.47;;;5.31;78.65
5550;BME280;2798;42.716;23.256;2023-12-22T03:59:08;93056.22;;;5.29;78.90
5550;BME280;2798;42.716;23.256;2023-12-22T04:01:33;92994.94;;;4.75;79.49
5550;BME280;2798;42.716;23.256;2023-12-22T04:03:59;93063.00;;;5.51;78.51
5550;BME280;2798;42.716;23.256;2023-12-22T04:06:24;93060.34;;;5.53;78.12
5550;BME280;2798;42.716;23.256;2023-12-22T04:08:50;93065.03;;;5.36;78.93
5550;BME280;2798;42.716;23.256;2023-12-22T04:11:15;93065.09;;;5.46;78.60
5550;BME280;2798;42.716;23.256;2023-12-22T04:13:40;93015.91;;;5.23;78.07
5550;BME280;2798;42.716;23.256;2023-12-22T04:16:06;93070.13;;;5.36;79.14
5550;BME280;2798;42.716;23.256;2023-12-22T04:18:31;93070.44;;;5.76;77.54
5550;BME280;2798;42.716;23.256;2023-12-22T04:20:57;93057.72;;;5.64;77.58
5550;BME280;2798;42.716;23.256;2023-12-22T04:23:22;93077.97;;;5.56;78.67
5550;BME280;2798;42.716;23.256;2023-12-22T04:25:48;93062.47;;;5.90;76.72
5550;BME280;2798;42.716;23.256;2023-12-22T04:28:13;93057.41;;;5.79;77.15
5550;BME280;2798;42.716;23.256;2023-12-22T04:30:38;93045.28;;;5.71;77.89
5550;BME280;2798;42.716;23.256;2023-12-22T04:33:04;93048.94;;;6.00;76.18
5550;BME280;2798;42.716;23.256;2023-12-22T04:35:29;93048.91;;;5.90;76.54
5550;BME280;2798;42.716;23.256;2023-12-22T04:37:55;93046.34;;;5.90;76.95
5550;BME280;2798;42.716;23.256;2023-12-22T04:40:20;93042.78;;;6.02;76.02
5550;BME280;2798;42.716;23.256;2023-12-22T04:42:45;93045.16;;;5.73;77.42
5550;BME280;2798;42.716;23.256;2023-12-22T04:45:11;93031.50;;;5.84;77.23
5550;BME280;2798;42.716;23.256;2023-12-22T04:47:36;93037.69;;;6.02;76.03
5550;BME280;2798;42.716;23.256;2023-12-22T04:50:01;93038.81;;;5.67;77.18
5550;BME280;2798;42.716;23.256;2023-12-22T04:52:27;93035.44;;;5.66;78.07
5550;BME280;2798;42.716;23.256;2023-12-22T04:54:53;93037.28;;;5.64;77.85
5550;BME280;2798;42.716;23.256;2023-12-22T04:57:19;92995.16;;;5.16;78.30
5550;BME280;2798;42.716;23.256;2023-12-22T04:59:44;93028.53;;;5.78;77.85
5550;BME280;2798;42.716;23.256;2023-12-22T05:02:09;93020.00;;;5.89;76.90
5550;BME280;2798;42.716;23.256;2023-12-22T05:04:35;93022.22;;;5.61;77.78
5550;BME280;2798;42.716;23.256;2023-12-22T05:07:00;93024.41;;;5.87;77.65
5550;BME280;2798;42.716;23.256;2023-12-22T05:09:26;92959.81;;;5.65;76.52
5550;BME280;2798;42.716;23.256;2023-12-22T05:11:53;93019.63;;;5.73;77.68
5550;BME280;2798;42.716;23.256;2023-12-22T05:14:18;93020.97;;;5.98;77.47
5550;BME280;2798;42.716;23.256;2023-12-22T05:16:44;93019.25;;;5.99;76.90
5550;BME280;2798;42.716;23.256;2023-12-22T05:19:09;93015.59;;;5.70;78.91
5550;BME280;2798;42.716;23.256;2023-12-22T05:21:35;93015.22;;;5.96;78.68
5550;BME280;2798;42.716;23.256;2023-12-22T05:24:00;93018.06;;;6.03;78.06
5550;BME280;2798;42.716;23.256;2023-12-22T05:26:25;93029.34;;;5.79;78.97
5550;BME280;2798;42.716;23.256;2023-12-22T05:28:55;93038.31;;;6.16;77.79
5550;BME280;2798;42.716;23.256;2023-12-22T05:31:20;93036.84;;;6.13;76.71
5550;BME280;2798;42.716;23.256;2023-12-22T05:33:46;93038.69;;;5.90;78.61
5550;BME280;2798;42.716;23.256;2023-12-22T05:36:11;92990.97;;;5.90;76.84
5550;BME280;2798;42.716;23.256;2023-12-22T05:38:37;93025.06;;;6.22;76.31
5550;BME280;2798;42.716;23.256;2023-12-22T05:41:02;93021.94;;;5.97;78.38
5550;BME280;2798;42.716;23.256;2023-12-22T05:43:28;93013.78;;;6.25;76.88
5550;BME280;2798;42.716;23.256;2023-12-22T05:45:53;93015.44;;;6.14;77.11
5550;BME280;2798;42.716;23.256;2023-12-22T05:48:18;93016.13;;;5.95;78.50
5550;BME280;2798;42.716;23.256;2023-12-22T05:50:47;93013.91;;;6.23;77.57
5550;BME280;2798;42.716;23.256;2023-12-22T05:53:12;93018.44;;;5.98;77.80
5550;BME280;2798;42.716;23.256;2023-12-22T05:55:37;93010.56;;;5.80;78.54
5550;BME280;2798;42.716;23.256;2023-12-22T05:58:03;93006.22;;;5.80;79.21
5550;BME280;2798;42.716;23.256;2023-12-22T06:00:28;93018.84;;;5.72;79.40
5550;BME280;2798;42.716;23.256;2023-12-22T06:02:53;93021.06;;;5.65;80.17
5550;BME280;2798;42.716;23.256;2023-12-22T06:05:19;93021.50;;;5.71;79.99
5550;BME280;2798;42.716;23.256;2023-12-22T06:07:44;93023.88;;;5.62;79.83
5550;BME280;2798;42.716;23.256;2023-12-22T06:10:09;93021.94;;;5.54;80.79
5550;BME280;2798;42.716;23.256;2023-12-22T06:12:35;93017.69;;;5.65;80.24
5550;BME280;2798;42.716;23.256;2023-12-22T06:15:01;93010.66;;;5.57;80.25
5550;BME280;2798;42.716;23.256;2023-12-22T06:17:26;93020.19;;;5.55;81.38
5550;BME280;2798;42.716;23.256;2023-12-22T06:19:51;93030.94;;;5.59;80.93
5550;BME280;2798;42.716;23.256;2023-12-22T06:22:17;93024.81;;;5.50;81.26
5550;BME280;2798;42.716;23.256;2023-12-22T06:24:42;93018.69;;;5.52;81.92
5550;BME280;2798;42.716;23.256;2023-12-22T06:27:08;93030.50;;;5.53;81.44
5550;BME280;2798;42.716;23.256;2023-12-22T06:29:33;93026.25;;;5.42;81.92
5550;BME280;2798;42.716;23.256;2023-12-22T06:31:59;93028.19;;;5.50;82.44
5550;BME280;2798;42.716;23.256;2023-12-22T06:34:24;93023.53;;;5.55;81.81
5550;BME280;2798;42.716;23.256;2023-12-22T06:36:50;93022.53;;;5.47;81.59
5550;BME280;2798;42.716;23.256;2023-12-22T06:39:16;93033.06;;;5.53;82.65
5550;BME280;2798;42.716;23.256;2023-12-22T06:41:41;93028.53;;;5.57;81.93
5550;BME280;2798;42.716;23.256;2023-12-22T06:44:06;93025.78;;;5.49;82.39
5550;BME280;2798;42.716;23.256;2023-12-22T06:46:32;93026.78;;;5.57;82.67
5550;BME280;2798;42.716;23.256;2023-12-22T06:48:57;93030.13;;;5.58;82.33
5550;BME280;2798;42.716;23.256;2023-12-22T06:51:27;93024.81;;;5.50;82.89
5550;BME280;2798;42.716;23.256;2023-12-22T06:53:53;93027.34;;;5.61;82.69
5550;BME280;2798;42.716;23.256;2023-12-22T06:56:23;93033.00;;;5.65;82.20
5550;BME280;2798;42.716;23.256;2023-12-22T06:58:49;93047.34;;;5.56;82.69
5550;BME280;2798;42.716;23.256;2023-12-22T07:01:25;93036.00;;;5.70;83.04
5550;BME280;2798;42.716;23.256;2023-12-22T07:03:50;93032.06;;;5.66;82.60
5550;BME280;2798;42.716;23.256;2023-12-22T07:06:16;93035.13;;;5.60;83.32
5550;BME280;2798;42.716;23.256;2023-12-22T07:08:42;93026.41;;;5.62;82.89
5550;BME280;2798;42.716;23.256;2023-12-22T07:11:08;93037.63;;;5.71;82.17
5550;BME280;2798;42.716;23.256;2023-12-22T07:13:34;93035.31;;;5.68;83.32
5550;BME280;2798;42.716;23.256;2023-12-22T07:15:59;93035.63;;;5.75;83.25
5550;BME280;2798;42.716;23.256;2023-12-22T07:18:24;93049.59;;;5.71;82.97
5550;BME280;2798;42.716;23.256;2023-12-22T07:20:50;93057.13;;;5.72;83.64
5550;BME280;2798;42.716;23.256;2023-12-22T07:23:15;93064.56;;;5.85;82.77
5550;BME280;2798;42.716;23.256;2023-12-22T07:25:41;93057.41;;;5.79;83.01
5550;BME280;2798;42.716;23.256;2023-12-22T07:28:06;93052.19;;;5.80;83.84
5550;BME280;2798;42.716;23.256;2023-12-22T07:30:31;93061.56;;;5.91;82.99
5550;BME280;2798;42.716;23.256;2023-12-22T07:32:57;93061.34;;;5.83;83.18
5550;BME280;2798;42.716;23.256;2023-12-22T07:35:22;93056.69;;;5.88;84.12
5550;BME280;2798;42.716;23.256;2023-12-22T07:37:47;93067.88;;;5.97;82.99
5550;BME280;2798;42.716;23.256;2023-12-22T07:40:13;93058.31;;;5.89;83.54
5550;BME280;2798;42.716;23.256;2023-12-22T07:42:38;93050.41;;;5.92;83.27
5550;BME280;2798;42.716;23.256;2023-12-22T07:45:04;93070.31;;;5.99;83.06
5550;BME280;2798;42.716;23.256;2023-12-22T07:47:30;93067.56;;;5.90;83.91
5550;BME280;2798;42.716;23.256;2023-12-22T07:49:55;93063.34;;;6.01;83.96
5550;BME280;2798;42.716;23.256;2023-12-22T07:52:20;93071.63;;;6.04;82.75
5550;BME280;2798;42.716;23.256;2023-12-22T07:54:46;93069.75;;;5.95;83.38
5550;BME280;2798;42.716;23.256;2023-12-22T07:57:12;93075.19;;;6.02;83.80
5550;BME280;2798;42.716;23.256;2023-12-22T07:59:37;93081.09;;;6.02;83.57
5550;BME280;2798;42.716;23.256;2023-12-22T08:02:03;93078.22;;;5.96;84.05
5550;BME280;2798;42.716;23.256;2023-12-22T08:04:28;93090.72;;;6.10;84.16
5550;BME280;2798;42.716;23.256;2023-12-22T08:06:54;93090.84;;;6.09;83.31
5550;BME280;2798;42.716;23.256;2023-12-22T08:09:19;93133.00;;;6.03;84.63
5550;BME280;2798;42.716;23.256;2023-12-22T08:11:44;93116.72;;;6.15;83.74
5550;BME280;2798;42.716;23.256;2023-12-22T08:14:12;93140.31;;;6.08;84.34
5550;BME280;2798;42.716;23.256;2023-12-22T08:16:37;93118.81;;;6.10;85.11
5550;BME280;2798;42.716;23.256;2023-12-22T08:19:02;93124.00;;;6.20;84.65
5550;BME280;2798;42.716;23.256;2023-12-22T08:21:28;93120.19;;;6.14;84.70
5550;BME280;2798;42.716;23.256;2023-12-22T08:23:53;93119.00;;;6.18;85.00
5550;BME280;2798;42.716;23.256;2023-12-22T08:26:18;93116.22;;;6.22;84.25
5550;BME280;2798;42.716;23.256;2023-12-22T08:28:44;93123.44;;;6.16;84.63
5550;BME280;2798;42.716;23.256;2023-12-22T08:31:10;93126.88;;;6.27;84.95
5550;BME280;2798;42.716;23.256;2023-12-22T08:33:37;93125.81;;;6.29;84.12
5550;BME280;2798;42.716;23.256;2023-12-22T08:36:05;93130.72;;;6.21;85.24
5550;BME280;2798;42.716;23.256;2023-12-22T08:38:31;93126.50;;;6.32;84.76
5550;BME280;2798;42.716;23.256;2023-12-22T08:40:56;93123.13;;;6.31;84.27
5550;BME280;2798;42.716;23.256;2023-12-22T08:43:21;93133.47;;;6.29;84.54
5550;BME280;2798;42.716;23.256;2023-12-22T08:45:47;93119.94;;;6.39;84.75
5550;BME280;2798;42.716;23.256;2023-12-22T08:48:12;93126.25;;;6.35;84.33
5550;BME280;2798;42.716;23.256;2023-12-22T08:50:37;93128.91;;;6.33;85.90
5550;BME280;2798;42.716;23.256;2023-12-22T08:53:03;93127.09;;;6.45;85.01
5550;BME280;2798;42.716;23.256;2023-12-22T08:55:28;93127.34;;;6.42;84.14
5550;BME280;2798;42.716;23.256;2023-12-22T08:57:53;93126.31;;;6.45;84.85
5550;BME280;2798;42.716;23.256;2023-12-22T09:00:19;93134.94;;;6.53;83.87
5550;BME280;2798;42.716;23.256;2023-12-22T09:02:44;93139.88;;;6.45;84.38
5550;BME280;2798;42.716;23.256;2023-12-22T09:05:09;93136.81;;;6.51;85.23
5550;BME280;2798;42.716;23.256;2023-12-22T09:07:35;93152.72;;;6.55;84.24
5550;BME280;2798;42.716;23.256;2023-12-22T09:10:00;93159.81;;;6.51;84.72
5550;BME280;2798;42.716;23.256;2023-12-22T09:12:25;93163.50;;;6.59;85.01
5550;BME280;2798;42.716;23.256;2023-12-22T09:14:51;93159.63;;;6.64;83.82
5550;BME280;2798;42.716;23.256;2023-12-22T09:17:16;93166.06;;;6.59;84.59
5550;BME280;2798;42.716;23.256;2023-12-22T09:19:41;93167.97;;;6.66;84.86
5550;BME280;2798;42.716;23.256;2023-12-22T09:22:08;93163.69;;;6.67;84.56
5550;BME280;2798;42.716;23.256;2023-12-22T09:24:33;93159.09;;;6.61;84.50
5550;BME280;2798;42.716;23.256;2023-12-22T09:26:58;93158.31;;;6.70;84.81
5550;BME280;2798;42.716;23.256;2023-12-22T09:29:28;93153.59;;;6.65;84.31
5550;BME280;2798;42.716;23.256;2023-12-22T09:31:54;93148.34;;;6.67;85.57
5550;BME280;2798;42.716;23.256;2023-12-22T09:34:19;93144.06;;;6.77;84.53
5550;BME280;2798;42.716;23.256;2023-12-22T09:36:44;93138.00;;;6.68;84.79
5550;BME280;2798;42.716;23.256;2023-12-22T09:39:10;93138.31;;;6.75;85.21
5550;BME280;2798;42.716;23.256;2023-12-22T09:41:43;93136.72;;;6.84;84.57
5550;BME280;2798;42.716;23.256;2023-12-22T09:44:12;93138.84;;;6.79;84.80
5550;BME280;2798;42.716;23.256;2023-12-22T09:46:38;93138.06;;;6.88;85.25
5550;BME280;2798;42.716;23.256;2023-12-22T09:49:04;93130.94;;;6.92;84.26
5550;BME280;2798;42.716;23.256;2023-12-22T09:51:30;93130.16;;;6.91;84.46
5550;BME280;2798;42.716;23.256;2023-12-22T09:53:56;93135.84;;;7.05;84.36
5550;BME280;2798;42.716;23.256;2023-12-22T09:56:23;93133.28;;;7.05;84.40
5550;BME280;2798;42.716;23.256;2023-12-22T09:58:49;93132.25;;;7.08;85.46
5550;BME280;2798;42.716;23.256;2023-12-22T10:01:16;93135.06;;;7.14;84.58
5550;BME280;2798;42.716;23.256;2023-12-22T10:03:46;93127.53;;;7.13;85.23
5550;BME280;2798;42.716;23.256;2023-12-22T10:06:11;93117.72;;;7.18;85.58
5550;BME280;2798;42.716;23.256;2023-12-22T10:08:37;93122.03;;;7.27;83.62
5550;BME280;2798;42.716;23.256;2023-12-22T10:11:03;93128.25;;;7.25;84.13
5550;BME280;2798;42.716;23.256;2023-12-22T10:13:30;93121.13;;;7.28;84.84
5550;BME280;2798;42.716;23.256;2023-12-22T10:15:56;93123.00;;;7.36;84.01
5550;BME280;2798;42.716;23.256;2023-12-22T10:18:21;93105.88;;;7.37;84.77
5550;BME280;2798;42.716;23.256;2023-12-22T10:20:47;93108.34;;;7.48;85.03
5550;BME280;2798;42.716;23.256;2023-12-22T10:23:12;93102.69;;;7.54;84.45
5550;BME280;2798;42.716;23.256;2023-12-22T10:25:38;93097.19;;;7.59;84.24
5550;BME280;2798;42.716;23.256;2023-12-22T10:28:05;93090.84;;;7.73;84.20
5550;BME280;2798;42.716;23.256;2023-12-22T10:30:30;93092.75;;;7.81;83.63
5550;BME280;2798;42.716;23.256;2023-12-22T10:35:59;93089.34;;;8.00;82.37
5550;BME280;2798;42.716;23.256;2023-12-22T10:38:25;93069.69;;;8.01;82.68
5550;BME280;2798;42.716;23.256;2023-12-22T10:40:51;93060.22;;;8.11;83.92
5550;BME280;2798;42.716;23.256;2023-12-22T10:43:16;93058.72;;;8.19;81.72
5550;BME280;2798;42.716;23.256;2023-12-22T10:45:41;93050.63;;;8.23;83.13
5550;BME280;2798;42.716;23.256;2023-12-22T10:48:07;93045.63;;;8.32;82.59
5550;BME280;2798;42.716;23.256;2023-12-22T10:50:32;93061.09;;;8.40;82.16
5550;BME280;2798;42.716;23.256;2023-12-22T10:52:57;93052.88;;;8.46;82.17
5550;BME280;2798;42.716;23.256;2023-12-22T10:55:23;93047.41;;;8.59;81.19
5550;BME280;2798;42.716;23.256;2023-12-22T10:57:49;93059.59;;;8.57;81.44
5550;BME280;2798;42.716;23.256;2023-12-22T11:00:15;93052.44;;;8.61;82.25
5550;BME280;2798;42.716;23.256;2023-12-22T11:02:44;93049.16;;;8.69;80.54
5550;BME280;2798;42.716;23.256;2023-12-22T11:05:12;93042.41;;;8.68;80.76
5550;BME280;2798;42.716;23.256;2023-12-22T11:07:44;93035.09;;;8.73;81.79
5550;BME280;2798;42.716;23.256;2023-12-22T11:10:13;93026.81;;;8.79;81.32
5550;BME280;2798;42.716;23.256;2023-12-22T11:12:39;93015.22;;;8.85;80.73
5550;BME280;2798;42.716;23.256;2023-12-22T11:15:04;93001.38;;;8.96;80.74
5550;BME280;2798;42.716;23.256;2023-12-22T11:17:34;93005.91;;;9.02;80.77
5550;BME280;2798;42.716;23.256;2023-12-22T11:20:00;92998.75;;;9.06;80.43
5550;BME280;2798;42.716;23.256;2023-12-22T11:22:27;93007.31;;;9.14;79.42
5550;BME280;2798;42.716;23.256;2023-12-22T11:24:53;92999.75;;;9.13;79.87
5550;BME280;2798;42.716;23.256;2023-12-22T11:27:20;93010.56;;;9.17;80.04
5550;BME280;2798;42.716;23.256;2023-12-22T11:29:49;93017.28;;;9.18;79.36
5550;BME280;2798;42.716;23.256;2023-12-22T11:32:15;93030.56;;;9.13;79.79
5550;BME280;2798;42.716;23.256;2023-12-22T11:34:41;93040.84;;;9.13;79.87
5550;BME280;2798;42.716;23.256;2023-12-22T11:37:07;93064.06;;;9.11;79.55
5550;BME280;2798;42.716;23.256;2023-12-22T11:39:33;93056.66;;;9.08;79.20
5550;BME280;2798;42.716;23.256;2023-12-22T11:41:59;93010.75;;;8.77;79.14
5550;BME280;2798;42.716;23.256;2023-12-22T11:44:25;93072.44;;;9.13;82.14
5550;BME280;2798;42.716;23.256;2023-12-22T11:47:02;93021.25;;;9.12;87.93
5550;BME280;2798;42.716;23.256;2023-12-22T11:49:36;93048.28;;;9.34;84.87
5550;BME280;2798;42.716;23.256;2023-12-22T11:52:11;93049.53;;;9.30;84.69
5550;BME280;2798;42.716;23.256;2023-12-22T11:54:55;93049.88;;;9.35;84.56
5550;BME280;2798;42.716;23.256;2023-12-22T11:57:30;93049.00;;;9.45;88.86
5550;BME280;2798;42.716;23.256;2023-12-22T11:59:56;93050.84;;;9.71;92.69
5550;BME280;2798;42.716;23.256;2023-12-22T12:02:22;93058.78;;;9.77;90.64
5550;BME280;2798;42.716;23.256;2023-12-22T12:04:47;93058.09;;;9.94;92.77
5550;BME280;2798;42.716;23.256;2023-12-22T12:10:12;93072.69;;;10.11;89.27
5550;BME280;2798;42.716;23.256;2023-12-22T12:12:39;93075.78;;;10.15;85.72
5550;BME280;2798;42.716;23.256;2023-12-22T12:15:06;93090.47;;;10.05;82.95
5550;BME280;2798;42.716;23.256;2023-12-22T12:17:32;93045.75;;;9.97;81.97
5550;BME280;2798;42.716;23.256;2023-12-22T12:19:57;93051.34;;;9.93;79.69
5550;BME280;2798;42.716;23.256;2023-12-22T12:22:23;93036.31;;;9.80;78.85
5550;BME280;2798;42.716;23.256;2023-12-22T12:24:50;93036.25;;;9.71;78.72
5550;BME280;2798;42.716;23.256;2023-12-22T12:27:19;93033.44;;;9.64;77.87
5550;BME280;2798;42.716;23.256;2023-12-22T12:29:44;93034.63;;;9.52;77.89
5550;BME280;2798;42.716;23.256;2023-12-22T12:32:10;93036.81;;;9.47;78.34
5550;BME280;2798;42.716;23.256;2023-12-22T12:34:38;93021.50;;;9.37;77.80
5550;BME280;2798;42.716;23.256;2023-12-22T12:37:05;93016.41;;;9.27;77.59
5550;BME280;2798;42.716;23.256;2023-12-22T12:39:30;93003.22;;;9.22;77.94
5550;BME280;2798;42.716;23.256;2023-12-22T12:41:59;93001.47;;;9.22;77.97
5550;BME280;2798;42.716;23.256;2023-12-22T12:44:25;92995.97;;;9.17;78.31
5550;BME280;2798;42.716;23.256;2023-12-22T12:46:52;93000.72;;;9.12;78.36
5550;BME280;2798;42.716;23.256;2023-12-22T12:49:18;93002.84;;;9.17;78.11
5550;BME280;2798;42.716;23.256;2023-12-22T12:51:44;93005.19;;;9.10;78.01
5550;BME280;2798;42.716;23.256;2023-12-22T12:54:10;93016.31;;;9.00;78.30
5550;BME280;2798;42.716;23.256;2023-12-22T12:56:37;93032.41;;;9.02;78.12
5550;BME280;2798;42.716;23.256;2023-12-22T12:59:06;93034.56;;;8.97;77.73
5550;BME280;2798;42.716;23.256;2023-12-22T13:01:32;93038.50;;;8.92;78.31
5550;BME280;2798;42.716;23.256;2023-12-22T13:04:02;93047.44;;;8.87;77.76
5550;BME280;2798;42.716;23.256;2023-12-22T13:06:27;93046.56;;;8.78;77.76
5550;BME280;2798;42.716;23.256;2023-12-22T13:08:53;93041.03;;;8.73;78.03
5550;BME280;2798;42.716;23.256;2023-12-22T13:11:22;93032.69;;;8.71;77.74
5550;BME280;2798;42.716;23.256;2023-12-22T13:13:49;93041.09;;;8.63;78.60
5550;BME280;2798;42.716;23.256;2023-12-22T13:16:21;93067.69;;;8.62;77.78
5550;BME280;2798;42.716;23.256;2023-12-22T13:18:48;93075.38;;;8.62;77.30
5550;BME280;2798;42.716;23.256;2023-12-22T13:21:13;93087.66;;;8.49;77.38
5550;BME280;2798;42.716;23.256;2023-12-22T13:23:39;93103.72;;;8.51;77.51